createdAt,value
2023-01-02T00:00:30.876Z,3.08
2023-01-02T00:02:57.800Z,2.92
2023-01-02T00:05:24.929Z,2.70
2023-01-02T00:07:51.712Z,2.97
2023-01-02T00:10:18.585Z,3.03
2023-01-02T00:12:45.422Z,3.05
2023-01-02T00:15:12.168Z,2.95
2023-01-02T00:17:39.031Z,3.08
2023-01-02T00:20:06.312Z,2.78
2023-01-02T00:22:33.122Z,3.20
2023-01-02T00:25:00.199Z,2.95
2023-01-02T00:27:27.085Z,3.08
2023-01-02T00:29:53.857Z,3.00
2023-01-02T00:32:20.649Z,3.45
2023-01-02T00:34:47.421Z,3.08
2023-01-02T00:37:14.173Z,3.15
2023-01-02T00:39:40.935Z,3.50
2023-01-02T00:42:07.684Z,3.45
2023-01-02T00:44:34.453Z,3.03
2023-01-02T00:47:01.274Z,3.08
2023-01-02T00:49:28.044Z,3.00
2023-01-02T00:51:54.776Z,2.90
2023-01-02T00:54:21.575Z,3.42
2023-01-02T00:56:48.346Z,3.30
2023-01-02T00:59:15.165Z,2.65
2023-01-02T01:01:42.033Z,3.08
2023-01-02T01:04:08.886Z,2.67
2023-01-02T01:06:35.784Z,2.75
2023-01-02T01:09:02.591Z,2.78
2023-01-02T01:11:29.355Z,3.17
2023-01-02T01:13:56.112Z,3.28
2023-01-02T01:16:23.004Z,3.03
2023-01-02T01:18:49.802Z,2.90
2023-01-02T01:21:19.076Z,2.63
2023-01-02T01:23:56.232Z,3.08
2023-01-02T01:26:23.502Z,3.17
2023-01-02T01:28:53.426Z,3.15
2023-01-02T01:31:20.745Z,2.90
2023-01-02T01:33:48.242Z,2.97
2023-01-02T01:36:20.197Z,3.17
2023-01-02T01:38:47.586Z,3.45
2023-01-02T01:41:19.486Z,2.50
2023-01-02T01:43:52.093Z,3.05
2023-01-02T01:46:27.144Z,3.22
2023-01-02T01:49:00.166Z,3.28
2023-01-02T01:54:06.774Z,3.17
2023-01-02T01:56:37.600Z,2.88
2023-01-02T01:59:04.782Z,3.20
2023-01-02T02:01:32.079Z,3.08
2023-01-02T02:03:59.424Z,2.80
2023-01-02T02:06:26.261Z,2.90
2023-01-02T02:09:19.425Z,3.95
2023-01-02T02:11:47.140Z,3.10
2023-01-02T02:14:13.996Z,3.08
2023-01-02T02:16:49.879Z,3.13
2023-01-02T02:19:51.225Z,2.50
2023-01-02T02:22:45.844Z,2.30
2023-01-02T02:25:50.307Z,3.10
2023-01-02T02:28:54.482Z,3.35
2023-01-02T02:31:48.249Z,3.38
2023-01-02T02:34:28.625Z,4.68
2023-01-02T02:37:07.379Z,3.60
2023-01-02T02:39:43.475Z,2.72
2023-01-02T02:42:21.195Z,2.97
2023-01-02T02:44:54.338Z,2.42
2023-01-02T02:47:34.837Z,3.17
2023-01-02T02:50:17.015Z,3.30
2023-01-02T02:52:52.517Z,2.95
2023-01-02T02:55:30.796Z,3.60
2023-01-02T02:58:00.444Z,2.85
2023-01-02T03:00:27.366Z,3.58
2023-01-02T03:02:54.191Z,3.60
2023-01-02T03:05:37.347Z,2.65
2023-01-02T03:08:13.663Z,2.80
2023-01-02T03:10:56.713Z,3.25
2023-01-02T03:13:44.287Z,2.70
2023-01-02T03:16:16.394Z,2.95
2023-01-02T03:18:53.304Z,3.20
2023-01-02T03:21:31.514Z,3.13
2023-01-02T03:24:05.534Z,3.50
2023-01-02T03:26:34.293Z,3.45
2023-01-02T03:29:07.314Z,3.03
2023-01-02T03:34:26.007Z,3.22
2023-01-02T03:37:01.860Z,3.40
2023-01-02T03:39:31.732Z,2.90
2023-01-02T03:42:03.659Z,2.60
2023-01-02T03:44:51.112Z,2.88
2023-01-02T03:47:30.621Z,2.50
2023-01-02T03:50:01.690Z,3.55
2023-01-02T03:52:28.511Z,3.03
2023-01-02T03:54:57.963Z,2.72
2023-01-02T03:57:38.274Z,2.95
2023-01-02T04:00:09.585Z,2.92
2023-01-02T04:02:50.639Z,2.90
2023-01-02T04:05:20.738Z,3.33
2023-01-02T04:08:00.977Z,3.03
2023-01-02T04:10:30.385Z,3.25
2023-01-02T04:13:02.835Z,3.08
2023-01-02T04:15:33.694Z,3.10
2023-01-02T04:18:05.166Z,3.08
2023-01-02T04:20:35.725Z,3.50
2023-01-02T04:23:08.388Z,3.13
2023-01-02T04:25:52.577Z,3.47
2023-01-02T04:28:27.899Z,2.97
2023-01-02T04:31:46.691Z,3.40
2023-01-02T04:34:15.878Z,3.53
2023-01-02T04:36:43.138Z,3.17
2023-01-02T04:39:10.335Z,2.63
2023-01-02T04:41:38.336Z,3.30
2023-01-02T04:44:05.418Z,3.60
2023-01-02T04:46:32.494Z,3.20
2023-01-02T04:48:59.376Z,3.45
2023-01-02T04:51:26.217Z,3.10
2023-01-02T04:53:54.067Z,3.08
2023-01-02T04:56:21.486Z,3.38
2023-01-02T04:58:49.051Z,2.70
2023-01-02T05:01:17.988Z,3.10
2023-01-02T05:03:47.395Z,3.10
2023-01-02T05:06:14.434Z,2.88
2023-01-02T05:08:41.494Z,3.03
2023-01-02T05:11:15.447Z,3.38
2023-01-02T05:13:42.572Z,2.58
2023-01-02T05:16:09.948Z,3.05
2023-01-02T05:18:36.811Z,2.95
2023-01-02T05:21:29.713Z,3.40
2023-01-02T05:23:58.017Z,3.45
2023-01-02T05:26:24.980Z,3.03
2023-01-02T05:28:55.430Z,2.80
2023-01-02T05:31:22.418Z,3.60
2023-01-02T05:33:56.693Z,2.83
2023-01-02T05:36:24.808Z,3.33
2023-01-02T05:38:52.609Z,2.75
2023-01-02T05:41:20.284Z,3.25
2023-01-02T05:43:47.127Z,2.95
2023-01-02T05:46:15.193Z,2.58
2023-01-02T05:48:42.391Z,3.35
2023-01-02T05:51:11.506Z,2.90
2023-01-02T05:53:38.868Z,3.08
2023-01-02T05:56:13.613Z,2.72
2023-01-02T05:58:42.404Z,3.10
2023-01-02T06:01:14.711Z,2.90
2023-01-02T06:03:47.993Z,3.47
2023-01-02T06:06:15.994Z,3.05
2023-01-02T06:08:42.840Z,3.00
2023-01-02T06:11:09.948Z,2.83
2023-01-02T06:13:38.337Z,3.58
2023-01-02T06:16:07.504Z,2.90
2023-01-02T06:18:36.300Z,3.38
2023-01-02T06:21:06.882Z,3.10
2023-01-02T06:23:34.103Z,2.90
2023-01-02T06:26:12.514Z,3.50
2023-01-02T06:28:39.583Z,2.55
2023-01-02T06:31:08.868Z,3.35
2023-01-02T06:33:35.931Z,3.38
2023-01-02T06:36:06.215Z,2.75
2023-01-02T06:38:33.426Z,2.70
2023-01-02T06:41:01.655Z,3.20
2023-01-02T06:43:29.780Z,2.35
2023-01-02T06:46:01.270Z,2.92
2023-01-02T06:48:28.503Z,2.50
2023-01-02T06:50:55.291Z,2.70
2023-01-02T06:53:22.096Z,3.50
2023-01-02T06:55:55.493Z,2.53
2023-01-02T06:58:22.824Z,3.57
2023-01-02T07:00:49.928Z,3.42
2023-01-02T07:03:17.853Z,3.55
2023-01-02T07:05:44.917Z,3.28
2023-01-02T07:08:12.498Z,2.78
2023-01-02T07:10:39.432Z,3.20
2023-01-02T07:13:06.180Z,2.92
2023-01-02T07:15:33.556Z,3.10
2023-01-02T07:18:00.688Z,2.97
2023-01-02T07:20:27.558Z,3.10
2023-01-02T07:22:54.759Z,3.00
2023-01-02T07:25:22.272Z,3.25
2023-01-02T07:27:49.293Z,3.35
2023-01-02T07:30:16.464Z,2.60
2023-01-02T07:32:43.435Z,3.30
2023-01-02T07:35:10.972Z,2.67
2023-01-02T07:37:37.994Z,2.83
2023-01-02T07:40:05.346Z,3.30
2023-01-02T07:42:32.127Z,2.97
2023-01-02T07:44:58.860Z,2.92
2023-01-02T07:47:25.567Z,3.78
2023-01-02T07:49:52.292Z,2.83
2023-01-02T07:52:19.017Z,2.65
2023-01-02T07:54:45.772Z,2.70
2023-01-02T07:57:12.467Z,2.75
2023-01-02T07:59:39.280Z,2.85
2023-01-02T08:02:06.268Z,2.80
2023-01-02T08:04:33.172Z,2.65
2023-01-02T08:06:59.966Z,3.40
2023-01-02T08:09:26.646Z,2.88
2023-01-02T08:11:53.940Z,2.30
2023-01-02T08:14:23.696Z,3.28
2023-01-02T08:16:50.842Z,3.08
2023-01-02T08:19:17.654Z,2.80
2023-01-02T08:21:44.505Z,2.75
2023-01-02T08:24:11.200Z,2.38
2023-01-02T08:26:37.923Z,2.90
2023-01-02T08:29:04.667Z,2.45
2023-01-02T08:31:31.465Z,3.13
2023-01-02T08:33:58.207Z,2.60
2023-01-02T08:36:25.130Z,2.67
2023-01-02T08:38:51.928Z,2.20
2023-01-02T08:41:40.272Z,2.50
2023-01-02T08:44:07.585Z,3.25
2023-01-02T08:46:42.293Z,2.35
2023-01-02T08:49:09.939Z,2.40
2023-01-02T08:51:36.843Z,2.20
2023-01-02T08:54:03.621Z,2.38
2023-01-02T08:56:32.406Z,2.55
2023-01-02T08:59:03.759Z,2.92
2023-01-02T09:01:31.689Z,2.13
2023-01-02T09:03:58.795Z,2.15
2023-01-02T09:06:27.500Z,2.70
2023-01-02T09:08:57.138Z,2.03
2023-01-02T09:11:29.402Z,2.20
2023-01-02T09:13:57.421Z,1.90
2023-01-02T09:16:24.766Z,2.00
2023-01-02T09:18:52.113Z,2.55
2023-01-02T09:21:19.150Z,2.25
2023-01-02T09:23:46.069Z,2.25
2023-01-02T09:26:13.978Z,2.58
2023-01-02T09:28:41.317Z,2.38
2023-01-02T09:31:12.383Z,2.28
2023-01-02T09:33:41.043Z,2.25
2023-01-02T09:36:09.894Z,2.40
2023-01-02T09:38:36.787Z,2.20
2023-01-02T09:41:13.215Z,2.40
2023-01-02T09:43:48.540Z,2.35
2023-01-02T09:46:44.191Z,1.60
2023-01-02T09:49:14.240Z,1.25
2023-01-02T09:51:41.373Z,1.42
2023-01-02T09:54:23.603Z,1.20
2023-01-02T09:57:11.459Z,1.58
2023-01-02T10:00:10.280Z,1.80
2023-01-02T10:02:52.118Z,0.98
2023-01-02T10:05:30.017Z,0.80
2023-01-02T10:08:12.104Z,1.15
2023-01-02T10:10:42.800Z,1.17
2023-01-02T10:13:59.818Z,0.70
2023-01-02T10:16:26.676Z,0.93
2023-01-02T10:18:55.052Z,1.35
2023-01-02T10:21:26.725Z,1.58
2023-01-02T10:24:07.602Z,1.70
2023-01-02T10:26:41.297Z,2.40
2023-01-02T10:29:14.062Z,1.00
2023-01-02T10:31:58.125Z,1.23
2023-01-02T10:34:24.992Z,1.10
2023-01-02T10:36:52.172Z,1.30
2023-01-02T10:39:23.255Z,1.77
2023-01-02T10:41:54.319Z,1.10
2023-01-02T10:44:42.907Z,1.25
2023-01-02T10:47:24.580Z,1.58
2023-01-02T10:49:53.052Z,1.70
2023-01-02T10:52:31.995Z,1.40
2023-01-02T10:55:00.540Z,1.60
2023-01-02T10:57:45.731Z,1.58
2023-01-02T11:00:25.503Z,2.20
2023-01-02T11:03:00.265Z,1.67
2023-01-02T11:07:56.191Z,1.52
2023-01-02T11:10:35.020Z,1.67
2023-01-02T11:13:29.076Z,1.40
2023-01-02T11:16:04.189Z,1.20
2023-01-02T11:18:35.838Z,0.90
2023-01-02T11:21:05.221Z,1.00
2023-01-02T11:23:37.407Z,0.90
2023-01-02T11:26:10.367Z,1.00
2023-01-02T11:31:11.464Z,1.48
2023-01-02T11:33:38.782Z,1.25
2023-01-02T11:36:05.600Z,1.00
2023-01-02T11:38:45.489Z,1.00
2023-01-02T11:42:25.169Z,1.30
2023-01-02T11:45:23.918Z,1.15
2023-01-02T11:48:04.545Z,1.50
2023-01-02T11:50:37.642Z,1.80
2023-01-02T11:53:13.362Z,1.70
2023-01-02T11:55:43.154Z,1.83
2023-01-02T11:58:31.049Z,2.08
2023-01-02T12:01:06.258Z,1.77
2023-01-02T12:03:34.720Z,2.20
2023-01-02T12:06:19.449Z,2.30
2023-01-02T12:09:03.994Z,1.60
2023-01-02T12:11:53.599Z,1.73
2023-01-02T12:14:24.718Z,2.15
2023-01-02T12:17:07.919Z,2.05
2023-01-02T12:22:20.097Z,2.08
2023-01-02T12:25:15.122Z,2.03
2023-01-02T12:27:58.422Z,2.15
2023-01-02T12:30:25.521Z,2.33
2023-01-02T12:33:29.932Z,1.67
2023-01-02T12:36:13.299Z,2.03
2023-01-02T12:39:10.813Z,1.52
2023-01-02T12:42:01.470Z,1.60
2023-01-02T12:44:51.527Z,1.45
2023-01-02T12:47:36.996Z,1.50
2023-01-02T12:50:09.864Z,1.60
2023-01-02T12:52:52.207Z,1.42
2023-01-02T12:55:56.301Z,2.13
2023-01-02T12:58:26.071Z,1.92
2023-01-02T13:01:19.291Z,2.22
2023-01-02T13:04:19.892Z,2.35
2023-01-02T13:07:00.370Z,1.60
2023-01-02T13:09:36.166Z,1.63
2023-01-02T13:12:11.695Z,1.88
2023-01-02T13:14:54.683Z,1.40
2023-01-02T13:17:42.155Z,1.98
2023-01-02T13:20:20.746Z,1.73
2023-01-02T13:23:18.432Z,1.77
2023-01-02T13:25:49.509Z,1.60
2023-01-02T13:28:18.218Z,1.98
2023-01-02T13:30:57.534Z,1.40
2023-01-02T13:33:40.163Z,1.50
2023-01-02T13:36:29.087Z,1.15
2023-01-02T13:39:00.525Z,1.13
2023-01-02T13:41:30.451Z,1.27
2023-01-02T13:44:01.408Z,1.40
2023-01-02T13:47:02.855Z,1.70
2023-01-02T13:49:24.136Z,1.33
2023-01-02T13:51:59.865Z,1.55
2023-01-02T13:54:36.444Z,1.52
2023-01-02T13:57:32.453Z,2.22
2023-01-02T14:00:01.777Z,2.20
2023-01-02T14:02:28.703Z,2.53
2023-01-02T14:04:55.664Z,2.30
2023-01-02T14:07:25.251Z,2.63
2023-01-02T14:10:10.025Z,3.05
2023-01-02T14:12:53.418Z,3.00
2023-01-02T14:15:25.876Z,3.00
2023-01-02T14:17:55.689Z,1.50
2023-01-02T14:20:28.121Z,1.60
2023-01-02T14:22:59.192Z,1.77
2023-01-02T14:25:26.457Z,2.05
2023-01-02T14:28:05.357Z,2.10
2023-01-02T14:30:41.118Z,2.47
2023-01-02T14:33:18.288Z,2.25
2023-01-02T14:35:58.423Z,2.83
2023-01-02T14:38:28.663Z,2.55
2023-01-02T14:41:15.404Z,2.53
2023-01-02T14:43:44.216Z,2.45
2023-01-02T14:46:25.794Z,2.83
2023-01-02T14:49:25.285Z,3.60
2023-01-02T14:52:08.206Z,2.97
2023-01-02T14:54:53.621Z,3.38
2023-01-02T14:57:30.813Z,3.08
2023-01-02T15:00:01.421Z,3.42
2023-01-02T15:02:37.848Z,3.92
2023-01-02T15:05:10.129Z,3.50
2023-01-02T15:07:43.200Z,4.40
2023-01-02T15:10:13.469Z,3.63
2023-01-02T15:13:03.603Z,3.78
2023-01-02T15:15:36.184Z,4.35
2023-01-02T15:18:14.858Z,4.93
2023-01-02T15:20:41.790Z,4.00
2023-01-02T15:23:20.953Z,4.78
2023-01-02T15:25:47.958Z,4.20
2023-01-02T15:28:28.347Z,4.63
2023-01-02T15:31:15.497Z,4.63
2023-01-02T15:33:42.551Z,4.30
2023-01-02T15:36:16.177Z,3.97
2023-01-02T15:38:44.233Z,5.15
2023-01-02T15:41:19.063Z,5.43
2023-01-02T15:44:06.012Z,5.57
2023-01-02T15:46:33.404Z,5.00
2023-01-02T15:49:02.279Z,5.25
2023-01-02T15:51:40.234Z,4.70
2023-01-02T15:54:15.979Z,4.50
2023-01-02T15:56:43.195Z,4.55
2023-01-02T15:59:29.242Z,4.15
2023-01-02T16:01:56.599Z,4.15
2023-01-02T16:04:26.704Z,4.18
2023-01-02T16:06:54.742Z,4.88
2023-01-02T16:09:28.090Z,4.65
2023-01-02T16:12:01.682Z,4.72
2023-01-02T16:14:44.472Z,4.50
2023-01-02T16:17:22.738Z,4.65
2023-01-02T16:20:02.189Z,4.72
2023-01-02T16:22:48.827Z,5.18
2023-01-02T16:25:30.200Z,4.85
2023-01-02T16:28:35.544Z,5.20
2023-01-02T16:31:22.272Z,5.85
2023-01-02T16:33:49.184Z,5.45
2023-01-02T16:36:15.996Z,5.68
2023-01-02T16:38:49.984Z,4.68
2023-01-02T16:41:36.945Z,4.68
2023-01-02T16:44:12.951Z,5.18
2023-01-02T16:46:44.278Z,4.78
2023-01-02T16:49:19.830Z,3.88
2023-01-02T16:51:50.070Z,3.30
2023-01-02T16:54:19.262Z,4.10
2023-01-02T16:56:46.849Z,3.35
2023-01-02T16:59:13.747Z,2.90
2023-01-02T17:01:40.717Z,2.72
2023-01-02T17:04:08.070Z,1.63
2023-01-02T17:06:35.808Z,2.03
2023-01-02T17:09:02.679Z,1.70
2023-01-02T17:11:29.951Z,1.70
2023-01-02T17:14:00.146Z,1.38
2023-01-02T17:16:27.052Z,1.60
2023-01-02T17:18:53.979Z,1.63
2023-01-02T17:21:20.744Z,1.35
2023-01-02T17:23:47.591Z,1.95
2023-01-02T17:26:14.475Z,2.30
2023-01-02T17:28:41.309Z,1.60
2023-01-02T17:31:09.171Z,1.60
2023-01-02T17:33:36.029Z,1.77
2023-01-02T17:36:05.589Z,2.17
2023-01-02T17:38:32.435Z,1.60
2023-01-02T17:40:59.322Z,1.52
2023-01-02T17:43:26.578Z,1.35
2023-01-02T17:45:53.518Z,1.30
2023-01-02T17:48:24.767Z,1.50
2023-01-02T17:50:58.079Z,2.05
2023-01-02T17:53:24.995Z,1.77
2023-01-02T17:56:20.329Z,2.53
2023-01-02T17:58:45.771Z,2.63
2023-01-02T18:01:20.728Z,1.90
2023-01-02T18:03:48.509Z,1.70
2023-01-02T18:06:15.812Z,1.60
2023-01-02T18:08:43.140Z,1.50
2023-01-02T18:11:13.757Z,1.80
2023-01-02T18:13:53.764Z,1.60
2023-01-02T18:16:33.141Z,2.53
2023-01-02T18:19:01.388Z,1.60
2023-01-02T18:21:34.165Z,2.25
2023-01-02T18:24:03.472Z,2.45
2023-01-02T18:26:31.560Z,2.83
2023-01-02T18:29:09.042Z,2.92
2023-01-02T18:31:41.735Z,2.20
2023-01-02T18:34:47.723Z,2.58
2023-01-02T18:37:23.090Z,2.42
2023-01-02T18:39:50.802Z,2.40
2023-01-02T18:42:20.633Z,2.58
2023-01-02T18:44:48.341Z,2.33
2023-01-02T18:47:26.514Z,2.22
2023-01-02T18:49:54.576Z,2.35
2023-01-02T18:52:33.127Z,2.08
2023-01-02T18:54:59.987Z,2.55
2023-01-02T19:00:19.401Z,2.42
2023-01-02T19:02:57.403Z,3.67
2023-01-02T19:05:29.134Z,3.08
2023-01-02T19:08:08.017Z,3.70
2023-01-02T19:10:41.179Z,3.97
2023-01-02T19:13:22.784Z,4.70
2023-01-02T19:15:58.470Z,4.60
2023-01-02T19:18:39.605Z,4.80
2023-01-02T19:21:09.743Z,4.28
2023-01-02T19:23:52.741Z,4.43
2023-01-02T19:26:31.123Z,4.35
2023-01-02T19:29:24.323Z,4.50
2023-01-02T19:31:54.771Z,4.78
2023-01-02T19:34:42.164Z,3.92
2023-01-02T19:37:11.639Z,4.40
2023-01-02T19:39:53.410Z,3.90
2023-01-02T19:42:23.238Z,4.65
2023-01-02T19:45:00.231Z,4.90
2023-01-02T19:47:29.852Z,4.50
2023-01-02T19:49:57.382Z,4.47
2023-01-02T19:52:25.700Z,5.15
2023-01-02T19:54:53.028Z,5.00
2023-01-02T19:57:21.038Z,5.20
2023-01-02T19:59:50.093Z,5.70
2023-01-02T20:02:20.900Z,5.68
2023-01-02T20:04:50.197Z,5.45
2023-01-02T20:07:17.169Z,5.82
2023-01-02T20:09:44.479Z,6.55
2023-01-02T20:12:30.203Z,6.07
2023-01-02T20:15:01.976Z,5.50
2023-01-02T20:17:28.938Z,5.22
2023-01-02T20:19:56.526Z,4.80
2023-01-02T20:22:23.414Z,4.38
2023-01-02T20:24:50.259Z,4.82
2023-01-02T20:27:17.193Z,4.53
2023-01-02T20:29:44.048Z,4.70
2023-01-02T20:32:10.864Z,4.63
2023-01-02T20:34:37.721Z,4.13
2023-01-02T20:37:04.962Z,4.15
2023-01-02T20:39:31.873Z,3.60
2023-01-02T20:41:58.624Z,3.90
2023-01-02T20:44:25.460Z,3.75
2023-01-02T20:46:52.280Z,3.90
2023-01-02T20:49:19.622Z,4.10
2023-01-02T20:51:46.746Z,3.05
2023-01-02T20:54:13.530Z,2.97
2023-01-02T20:56:40.398Z,2.70
2023-01-02T20:59:07.243Z,2.38
2023-01-02T21:01:34.553Z,2.70
2023-01-02T21:04:01.505Z,2.80
2023-01-02T21:06:28.343Z,2.67
2023-01-02T21:08:55.098Z,2.15
2023-01-02T21:11:21.967Z,2.38
2023-01-02T21:13:48.779Z,2.47
2023-01-02T21:16:15.945Z,2.20
2023-01-02T21:18:43.013Z,2.20
2023-01-02T21:21:13.378Z,2.63
2023-01-02T21:23:41.241Z,2.65
2023-01-02T21:26:09.546Z,2.35
2023-01-02T21:28:36.734Z,2.45
2023-01-02T21:31:04.463Z,2.53
2023-01-02T21:33:31.566Z,2.58
2023-01-02T21:36:01.234Z,2.25
2023-01-02T21:38:29.241Z,2.58
2023-01-02T21:41:16.822Z,2.70
2023-01-02T21:43:43.653Z,3.13
2023-01-02T21:46:10.474Z,2.90
2023-01-02T21:48:38.289Z,3.10
2023-01-02T21:51:06.053Z,3.35
2023-01-02T21:53:33.052Z,3.35
2023-01-02T21:56:00.032Z,3.00
2023-01-02T21:58:26.878Z,3.35
2023-01-02T22:00:53.710Z,3.58
2023-01-02T22:03:20.665Z,2.83
2023-01-02T22:05:47.527Z,3.38
2023-01-02T22:08:14.294Z,2.80
2023-01-02T22:10:41.095Z,3.33
2023-01-02T22:13:07.810Z,3.15
2023-01-02T22:15:34.585Z,3.17
2023-01-02T22:18:01.364Z,2.60
2023-01-02T22:20:28.213Z,2.97
2023-01-02T22:22:54.941Z,2.72
2023-01-02T22:25:23.277Z,2.90
2023-01-02T22:27:50.074Z,2.70
2023-01-02T22:30:33.120Z,3.50
2023-01-02T22:33:01.406Z,2.95
2023-01-02T22:35:28.266Z,2.55
2023-01-02T22:37:55.318Z,2.33
2023-01-02T22:40:22.181Z,2.72
2023-01-02T22:43:04.758Z,2.53
2023-01-02T22:45:46.440Z,2.63
2023-01-02T22:48:30.574Z,2.65
2023-01-02T22:51:00.650Z,2.60
2023-01-02T22:53:33.852Z,2.47
2023-01-02T22:56:02.791Z,4.03
2023-01-02T22:58:29.529Z,2.60
2023-01-02T23:01:07.170Z,3.30
2023-01-02T23:03:40.228Z,2.63
2023-01-02T23:06:07.474Z,3.00
2023-01-02T23:08:34.696Z,2.85
2023-01-02T23:11:01.898Z,3.08
2023-01-02T23:13:28.784Z,2.85
2023-01-02T23:16:14.258Z,2.80
2023-01-02T23:18:59.584Z,2.95
2023-01-02T23:21:27.586Z,2.30
2023-01-02T23:23:54.443Z,2.92
2023-01-02T23:26:23.879Z,2.80
2023-01-02T23:29:08.165Z,2.38
2023-01-02T23:31:40.939Z,2.50
2023-01-02T23:34:09.027Z,2.00
2023-01-02T23:36:36.625Z,2.60
2023-01-02T23:39:06.383Z,2.72
2023-01-02T23:41:34.455Z,2.05
2023-01-02T23:44:01.368Z,2.15
2023-01-02T23:46:28.244Z,2.50
2023-01-02T23:48:55.111Z,2.45
2023-01-02T23:51:21.919Z,1.95
2023-01-02T23:53:48.639Z,1.75
2023-01-02T23:56:24.395Z,2.08
2023-01-02T23:58:54.910Z,1.80
